sensor_id;sensor_type;location;lat;lon;timestamp;P1;durP1;ratioP1;P2;durP2;ratioP2
72639;SDS011;60683;51.730;8.762;2023-07-28T00:00:18;2.90;;;0.90;;
72639;SDS011;60683;51.730;8.762;2023-07-28T00:03:07;3.65;;;1.08;;
72639;SDS011;60683;51.730;8.762;2023-07-28T00:05:35;2.72;;;1.05;;
72639;SDS011;60683;51.730;8.762;2023-07-28T00:08:03;1.98;;;0.80;;
72639;SDS011;60683;51.730;8.762;2023-07-28T00:10:31;6.50;;;1.10;;
72639;SDS011;60683;51.730;8.762;2023-07-28T00:12:59;3.70;;;1.23;;
72639;SDS011;60683;51.730;8.762;2023-07-28T00:15:28;3.30;;;1.27;;
72639;SDS011;60683;51.730;8.762;2023-07-28T00:17:56;3.28;;;1.02;;
72639;SDS011;60683;51.730;8.762;2023-07-28T00:20:26;3.03;;;1.00;;
72639;SDS011;60683;51.730;8.762;2023-07-28T00:22:54;3.03;;;1.10;;
72639;SDS011;60683;51.730;8.762;2023-07-28T00:25:22;5.40;;;1.17;;
72639;SDS011;60683;51.730;8.762;2023-07-28T00:27:49;4.43;;;1.35;;
72639;SDS011;60683;51.730;8.762;2023-07-28T00:30:17;3.33;;;1.05;;
72639;SDS011;60683;51.730;8.762;2023-07-28T00:32:45;3.55;;;0.98;;
72639;SDS011;60683;51.730;8.762;2023-07-28T00:35:12;3.35;;;1.08;;
72639;SDS011;60683;51.730;8.762;2023-07-28T00:37:42;5.72;;;1.30;;
72639;SDS011;60683;51.730;8.762;2023-07-28T00:40:09;3.30;;;1.02;;
72639;SDS011;60683;51.730;8.762;2023-07-28T00:42:38;2.22;;;0.80;;
72639;SDS011;60683;51.730;8.762;2023-07-28T00:45:07;3.78;;;1.05;;
72639;SDS011;60683;51.730;8.762;2023-07-28T00:47:35;3.75;;;1.05;;
72639;SDS011;60683;51.730;8.762;2023-07-28T00:50:03;2.15;;;0.75;;
72639;SDS011;60683;51.730;8.762;2023-07-28T00:52:32;3.30;;;0.98;;
72639;SDS011;60683;51.730;8.762;2023-07-28T00:55:01;3.55;;;0.90;;
72639;SDS011;60683;51.730;8.762;2023-07-28T00:57:29;2.95;;;0.70;;
72639;SDS011;60683;51.730;8.762;2023-07-28T00:59:56;2.75;;;1.00;;
72639;SDS011;60683;51.730;8.762;2023-07-28T01:02:25;1.55;;;0.65;;
72639;SDS011;60683;51.730;8.762;2023-07-28T01:04:52;2.60;;;0.70;;
72639;SDS011;60683;51.730;8.762;2023-07-28T01:07:22;2.10;;;0.80;;
72639;SDS011;60683;51.730;8.762;2023-07-28T01:10:00;1.85;;;0.77;;
72639;SDS011;60683;51.730;8.762;2023-07-28T01:12:34;1.83;;;0.82;;
72639;SDS011;60683;51.730;8.762;2023-07-28T01:15:01;3.20;;;1.20;;
72639;SDS011;60683;51.730;8.762;2023-07-28T01:17:29;5.38;;;1.45;;
72639;SDS011;60683;51.730;8.762;2023-07-28T01:19:57;2.83;;;1.20;;
72639;SDS011;60683;51.730;8.762;2023-07-28T01:22:33;5.10;;;1.35;;
72639;SDS011;60683;51.730;8.762;2023-07-28T01:25:16;3.13;;;1.50;;
72639;SDS011;60683;51.730;8.762;2023-07-28T01:27:50;3.35;;;1.17;;
72639;SDS011;60683;51.730;8.762;2023-07-28T01:30:20;3.13;;;1.35;;
72639;SDS011;60683;51.730;8.762;2023-07-28T01:32:53;3.85;;;1.13;;
72639;SDS011;60683;51.730;8.762;2023-07-28T01:35:21;5.78;;;1.60;;
72639;SDS011;60683;51.730;8.762;2023-07-28T01:37:49;7.53;;;2.00;;
72639;SDS011;60683;51.730;8.762;2023-07-28T01:40:17;5.50;;;1.35;;
72639;SDS011;60683;51.730;8.762;2023-07-28T01:42:44;6.35;;;1.65;;
72639;SDS011;60683;51.730;8.762;2023-07-28T01:45:14;4.80;;;1.50;;
72639;SDS011;60683;51.730;8.762;2023-07-28T01:47:41;4.43;;;1.38;;
72639;SDS011;60683;51.730;8.762;2023-07-28T01:50:08;4.15;;;1.38;;
72639;SDS011;60683;51.730;8.762;2023-07-28T01:52:36;3.67;;;1.48;;
72639;SDS011;60683;51.730;8.762;2023-07-28T01:55:03;5.40;;;1.70;;
72639;SDS011;60683;51.730;8.762;2023-07-28T01:57:32;3.20;;;1.60;;
72639;SDS011;60683;51.730;8.762;2023-07-28T02:00:00;4.13;;;1.60;;
72639;SDS011;60683;51.730;8.762;2023-07-28T02:02:30;4.55;;;1.70;;
72639;SDS011;60683;51.730;8.762;2023-07-28T02:04:58;7.80;;;1.80;;
72639;SDS011;60683;51.730;8.762;2023-07-28T02:07:26;5.57;;;1.90;;
72639;SDS011;60683;51.730;8.762;2023-07-28T02:09:53;4.45;;;2.00;;
72639;SDS011;60683;51.730;8.762;2023-07-28T02:12:21;3.97;;;1.65;;
72639;SDS011;60683;51.730;8.762;2023-07-28T02:14:48;4.78;;;1.60;;
72639;SDS011;60683;51.730;8.762;2023-07-28T02:17:16;5.78;;;1.88;;
72639;SDS011;60683;51.730;8.762;2023-07-28T02:19:45;6.10;;;2.28;;
72639;SDS011;60683;51.730;8.762;2023-07-28T02:22:12;4.70;;;1.60;;
72639;SDS011;60683;51.730;8.762;2023-07-28T02:24:39;6.43;;;2.03;;
72639;SDS011;60683;51.730;8.762;2023-07-28T02:27:07;6.15;;;2.10;;
72639;SDS011;60683;51.730;8.762;2023-07-28T02:29:35;6.70;;;1.88;;
72639;SDS011;60683;51.730;8.762;2023-07-28T02:32:03;4.55;;;1.65;;
72639;SDS011;60683;51.730;8.762;2023-07-28T02:34:31;4.60;;;1.70;;
72639;SDS011;60683;51.730;8.762;2023-07-28T02:37:00;4.30;;;1.95;;
72639;SDS011;60683;51.730;8.762;2023-07-28T02:39:28;7.20;;;1.92;;
72639;SDS011;60683;51.730;8.762;2023-07-28T02:41:55;5.35;;;2.00;;
72639;SDS011;60683;51.730;8.762;2023-07-28T02:44:22;7.95;;;2.20;;
72639;SDS011;60683;51.730;8.762;2023-07-28T02:46:49;6.30;;;2.13;;
72639;SDS011;60683;51.730;8.762;2023-07-28T02:49:17;5.53;;;1.95;;
72639;SDS011;60683;51.730;8.762;2023-07-28T02:51:45;4.15;;;1.80;;
72639;SDS011;60683;51.730;8.762;2023-07-28T02:54:14;5.32;;;2.22;;
72639;SDS011;60683;51.730;8.762;2023-07-28T02:56:41;5.20;;;1.80;;
72639;SDS011;60683;51.730;8.762;2023-07-28T02:59:08;4.50;;;1.60;;
72639;SDS011;60683;51.730;8.762;2023-07-28T03:01:36;4.18;;;1.80;;
72639;SDS011;60683;51.730;8.762;2023-07-28T03:04:04;5.00;;;1.92;;
72639;SDS011;60683;51.730;8.762;2023-07-28T03:06:32;4.25;;;1.85;;
72639;SDS011;60683;51.730;8.762;2023-07-28T03:08:59;4.93;;;1.77;;
72639;SDS011;60683;51.730;8.762;2023-07-28T03:11:28;5.20;;;1.88;;
72639;SDS011;60683;51.730;8.762;2023-07-28T03:13:56;5.85;;;1.80;;
72639;SDS011;60683;51.730;8.762;2023-07-28T03:16:23;4.47;;;1.83;;
72639;SDS011;60683;51.730;8.762;2023-07-28T03:18:51;3.47;;;1.80;;
72639;SDS011;60683;51.730;8.762;2023-07-28T03:21:19;4.53;;;1.73;;
72639;SDS011;60683;51.730;8.762;2023-07-28T03:23:46;4.18;;;1.50;;
72639;SDS011;60683;51.730;8.762;2023-07-28T03:26:14;4.57;;;1.85;;
72639;SDS011;60683;51.730;8.762;2023-07-28T03:28:43;3.45;;;1.42;;
72639;SDS011;60683;51.730;8.762;2023-07-28T03:31:11;5.53;;;1.65;;
72639;SDS011;60683;51.730;8.762;2023-07-28T03:33:38;4.97;;;1.65;;
72639;SDS011;60683;51.730;8.762;2023-07-28T03:36:06;4.68;;;2.15;;
72639;SDS011;60683;51.730;8.762;2023-07-28T03:38:34;4.70;;;1.90;;
72639;SDS011;60683;51.730;8.762;2023-07-28T03:41:02;5.32;;;3.08;;
72639;SDS011;60683;51.730;8.762;2023-07-28T03:43:29;4.43;;;2.22;;
72639;SDS011;60683;51.730;8.762;2023-07-28T03:45:58;4.43;;;1.92;;
72639;SDS011;60683;51.730;8.762;2023-07-28T03:48:26;7.88;;;2.25;;
72639;SDS011;60683;51.730;8.762;2023-07-28T03:50:53;6.10;;;2.00;;
72639;SDS011;60683;51.730;8.762;2023-07-28T03:53:21;5.15;;;2.10;;
72639;SDS011;60683;51.730;8.762;2023-07-28T03:55:49;4.45;;;1.85;;
72639;SDS011;60683;51.730;8.762;2023-07-28T03:58:16;3.85;;;1.83;;
72639;SDS011;60683;51.730;8.762;2023-07-28T04:00:44;4.95;;;1.77;;
72639;SDS011;60683;51.730;8.762;2023-07-28T04:03:12;5.28;;;2.08;;
72639;SDS011;60683;51.730;8.762;2023-07-28T04:05:40;5.13;;;2.22;;
72639;SDS011;60683;51.730;8.762;2023-07-28T04:08:07;5.22;;;2.25;;
72639;SDS011;60683;51.730;8.762;2023-07-28T04:10:35;4.70;;;1.83;;
72639;SDS011;60683;51.730;8.762;2023-07-28T04:13:03;3.45;;;1.88;;
72639;SDS011;60683;51.730;8.762;2023-07-28T04:15:30;5.18;;;2.10;;
72639;SDS011;60683;51.730;8.762;2023-07-28T04:17:57;5.05;;;1.90;;
72639;SDS011;60683;51.730;8.762;2023-07-28T04:20:27;4.45;;;2.13;;
72639;SDS011;60683;51.730;8.762;2023-07-28T04:22:54;3.17;;;1.45;;
72639;SDS011;60683;51.730;8.762;2023-07-28T04:25:21;4.38;;;1.90;;
72639;SDS011;60683;51.730;8.762;2023-07-28T04:27:49;4.68;;;1.67;;
72639;SDS011;60683;51.730;8.762;2023-07-28T04:30:18;6.15;;;2.20;;
72639;SDS011;60683;51.730;8.762;2023-07-28T04:32:45;4.05;;;1.70;;
72639;SDS011;60683;51.730;8.762;2023-07-28T04:35:13;4.82;;;1.85;;
72639;SDS011;60683;51.730;8.762;2023-07-28T04:37:42;4.88;;;1.92;;
72639;SDS011;60683;51.730;8.762;2023-07-28T04:40:10;4.60;;;2.03;;
72639;SDS011;60683;51.730;8.762;2023-07-28T04:42:37;4.20;;;1.70;;
72639;SDS011;60683;51.730;8.762;2023-07-28T04:45:05;6.43;;;2.08;;
72639;SDS011;60683;51.730;8.762;2023-07-28T04:47:34;4.43;;;1.80;;
72639;SDS011;60683;51.730;8.762;2023-07-28T04:50:02;5.80;;;2.05;;
72639;SDS011;60683;51.730;8.762;2023-07-28T04:52:29;4.32;;;1.80;;
72639;SDS011;60683;51.730;8.762;2023-07-28T04:54:59;6.57;;;2.13;;
72639;SDS011;60683;51.730;8.762;2023-07-28T04:57:26;5.78;;;2.08;;
72639;SDS011;60683;51.730;8.762;2023-07-28T04:59:53;5.07;;;1.63;;
72639;SDS011;60683;51.730;8.762;2023-07-28T05:02:21;4.55;;;1.27;;
72639;SDS011;60683;51.730;8.762;2023-07-28T05:04:49;4.78;;;1.73;;
72639;SDS011;60683;51.730;8.762;2023-07-28T05:07:16;3.25;;;1.30;;
72639;SDS011;60683;51.730;8.762;2023-07-28T05:09:44;4.78;;;1.88;;
72639;SDS011;60683;51.730;8.762;2023-07-28T05:12:13;4.30;;;1.80;;
72639;SDS011;60683;51.730;8.762;2023-07-28T05:14:40;3.30;;;1.25;;
72639;SDS011;60683;51.730;8.762;2023-07-28T05:17:08;3.75;;;1.33;;
72639;SDS011;60683;51.730;8.762;2023-07-28T05:19:35;3.47;;;1.38;;
72639;SDS011;60683;51.730;8.762;2023-07-28T05:22:03;3.20;;;1.10;;
72639;SDS011;60683;51.730;8.762;2023-07-28T05:24:32;3.85;;;1.15;;
72639;SDS011;60683;51.730;8.762;2023-07-28T05:27:00;6.13;;;1.60;;
72639;SDS011;60683;51.730;8.762;2023-07-28T05:29:29;3.60;;;1.27;;
72639;SDS011;60683;51.730;8.762;2023-07-28T05:31:57;3.42;;;1.40;;
72639;SDS011;60683;51.730;8.762;2023-07-28T05:34:26;3.88;;;1.50;;
72639;SDS011;60683;51.730;8.762;2023-07-28T05:36:53;3.05;;;1.02;;
72639;SDS011;60683;51.730;8.762;2023-07-28T05:39:21;4.32;;;1.48;;
72639;SDS011;60683;51.730;8.762;2023-07-28T05:41:48;4.30;;;1.75;;
72639;SDS011;60683;51.730;8.762;2023-07-28T05:44:16;3.80;;;1.30;;
72639;SDS011;60683;51.730;8.762;2023-07-28T05:46:45;3.28;;;1.02;;
72639;SDS011;60683;51.730;8.762;2023-07-28T05:49:14;2.78;;;1.13;;
72639;SDS011;60683;51.730;8.762;2023-07-28T05:51:41;5.53;;;1.98;;
72639;SDS011;60683;51.730;8.762;2023-07-28T05:54:09;3.80;;;1.33;;
72639;SDS011;60683;51.730;8.762;2023-07-28T05:56:38;2.80;;;1.00;;
72639;SDS011;60683;51.730;8.762;2023-07-28T05:59:06;3.25;;;1.23;;
72639;SDS011;60683;51.730;8.762;2023-07-28T06:01:34;3.33;;;1.50;;
72639;SDS011;60683;51.730;8.762;2023-07-28T06:04:03;4.95;;;1.17;;
72639;SDS011;60683;51.730;8.762;2023-07-28T06:06:30;3.58;;;1.30;;
72639;SDS011;60683;51.730;8.762;2023-07-28T06:08:58;2.75;;;1.10;;
72639;SDS011;60683;51.730;8.762;2023-07-28T06:11:25;4.03;;;1.42;;
72639;SDS011;60683;51.730;8.762;2023-07-28T06:13:54;4.20;;;1.73;;
72639;SDS011;60683;51.730;8.762;2023-07-28T06:16:21;4.38;;;1.67;;
72639;SDS011;60683;51.730;8.762;2023-07-28T06:18:50;4.63;;;1.83;;
72639;SDS011;60683;51.730;8.762;2023-07-28T06:21:19;4.38;;;2.00;;
72639;SDS011;60683;51.730;8.762;2023-07-28T06:23:47;5.10;;;2.00;;
72639;SDS011;60683;51.730;8.762;2023-07-28T06:26:14;5.07;;;1.83;;
72639;SDS011;60683;51.730;8.762;2023-07-28T06:28:42;5.78;;;2.20;;
72639;SDS011;60683;51.730;8.762;2023-07-28T06:31:09;7.05;;;2.33;;
72639;SDS011;60683;51.730;8.762;2023-07-28T06:33:36;6.53;;;2.15;;
72639;SDS011;60683;51.730;8.762;2023-07-28T06:36:04;8.07;;;2.95;;
72639;SDS011;60683;51.730;8.762;2023-07-28T06:38:33;7.38;;;2.88;;
72639;SDS011;60683;51.730;8.762;2023-07-28T06:41:01;7.75;;;3.35;;
72639;SDS011;60683;51.730;8.762;2023-07-28T06:43:28;8.80;;;3.95;;
72639;SDS011;60683;51.730;8.762;2023-07-28T06:45:56;8.65;;;3.03;;
72639;SDS011;60683;51.730;8.762;2023-07-28T06:48:23;9.05;;;3.13;;
72639;SDS011;60683;51.730;8.762;2023-07-28T06:50:50;6.15;;;2.00;;
72639;SDS011;60683;51.730;8.762;2023-07-28T06:53:18;5.93;;;2.85;;
72639;SDS011;60683;51.730;8.762;2023-07-28T06:55:47;5.65;;;2.38;;
72639;SDS011;60683;51.730;8.762;2023-07-28T06:58:14;8.38;;;1.95;;
72639;SDS011;60683;51.730;8.762;2023-07-28T07:00:42;5.05;;;1.80;;
72639;SDS011;60683;51.730;8.762;2023-07-28T07:03:09;5.18;;;1.90;;
72639;SDS011;60683;51.730;8.762;2023-07-28T07:05:37;6.13;;;1.73;;
72639;SDS011;60683;51.730;8.762;2023-07-28T07:08:05;3.90;;;1.52;;
72639;SDS011;60683;51.730;8.762;2023-07-28T07:10:33;4.80;;;2.05;;
72639;SDS011;60683;51.730;8.762;2023-07-28T07:13:02;4.38;;;1.75;;
72639;SDS011;60683;51.730;8.762;2023-07-28T07:15:29;5.22;;;1.70;;
72639;SDS011;60683;51.730;8.762;2023-07-28T07:17:56;4.43;;;1.60;;
72639;SDS011;60683;51.730;8.762;2023-07-28T07:20:24;5.35;;;1.77;;
72639;SDS011;60683;51.730;8.762;2023-07-28T07:22:51;4.13;;;1.92;;
72639;SDS011;60683;51.730;8.762;2023-07-28T07:25:19;3.60;;;1.80;;
72639;SDS011;60683;51.730;8.762;2023-07-28T07:27:46;4.53;;;1.80;;
72639;SDS011;60683;51.730;8.762;2023-07-28T07:30:15;4.03;;;1.88;;
72639;SDS011;60683;51.730;8.762;2023-07-28T07:32:43;4.63;;;1.92;;
72639;SDS011;60683;51.730;8.762;2023-07-28T07:35:10;4.03;;;1.67;;
72639;SDS011;60683;51.730;8.762;2023-07-28T07:37:38;3.45;;;1.58;;
72639;SDS011;60683;51.730;8.762;2023-07-28T07:40:06;4.40;;;1.67;;
72639;SDS011;60683;51.730;8.762;2023-07-28T07:42:40;3.55;;;1.40;;
72639;SDS011;60683;51.730;8.762;2023-07-28T07:45:09;4.13;;;1.60;;
72639;SDS011;60683;51.730;8.762;2023-07-28T07:47:39;4.43;;;2.10;;
72639;SDS011;60683;51.730;8.762;2023-07-28T07:50:07;5.03;;;1.90;;
72639;SDS011;60683;51.730;8.762;2023-07-28T07:52:36;4.22;;;1.83;;
72639;SDS011;60683;51.730;8.762;2023-07-28T07:55:03;4.93;;;2.28;;
72639;SDS011;60683;51.730;8.762;2023-07-28T07:57:32;5.05;;;2.50;;
72639;SDS011;60683;51.730;8.762;2023-07-28T07:59:59;4.45;;;1.48;;
72639;SDS011;60683;51.730;8.762;2023-07-28T08:02:26;4.25;;;2.10;;
72639;SDS011;60683;51.730;8.762;2023-07-28T08:04:55;5.53;;;2.88;;
72639;SDS011;60683;51.730;8.762;2023-07-28T08:07:23;4.07;;;2.25;;
72639;SDS011;60683;51.730;8.762;2023-07-28T08:09:50;5.75;;;3.10;;
72639;SDS011;60683;51.730;8.762;2023-07-28T08:12:18;5.15;;;3.15;;
72639;SDS011;60683;51.730;8.762;2023-07-28T08:14:45;5.68;;;3.10;;
72639;SDS011;60683;51.730;8.762;2023-07-28T08:17:13;6.55;;;3.10;;
72639;SDS011;60683;51.730;8.762;2023-07-28T08:19:40;7.13;;;3.00;;
72639;SDS011;60683;51.730;8.762;2023-07-28T08:22:09;6.68;;;3.25;;
72639;SDS011;60683;51.730;8.762;2023-07-28T08:27:05;7.00;;;3.92;;
72639;SDS011;60683;51.730;8.762;2023-07-28T08:29:33;7.53;;;3.92;;
72639;SDS011;60683;51.730;8.762;2023-07-28T08:32:00;6.22;;;3.78;;
72639;SDS011;60683;51.730;8.762;2023-07-28T08:34:28;7.68;;;4.28;;
72639;SDS011;60683;51.730;8.762;2023-07-28T08:36:55;9.15;;;5.38;;
72639;SDS011;60683;51.730;8.762;2023-07-28T08:39:24;8.60;;;4.53;;
72639;SDS011;60683;51.730;8.762;2023-07-28T08:41:57;9.82;;;4.90;;
72639;SDS011;60683;51.730;8.762;2023-07-28T08:44:25;7.93;;;4.05;;
72639;SDS011;60683;51.730;8.762;2023-07-28T08:46:53;11.23;;;4.93;;
72639;SDS011;60683;51.730;8.762;2023-07-28T08:49:21;7.90;;;4.80;;
72639;SDS011;60683;51.730;8.762;2023-07-28T08:51:48;7.68;;;4.68;;
72639;SDS011;60683;51.730;8.762;2023-07-28T08:54:16;9.60;;;5.43;;
72639;SDS011;60683;51.730;8.762;2023-07-28T08:56:45;8.02;;;4.70;;
72639;SDS011;60683;51.730;8.762;2023-07-28T08:59:12;9.57;;;5.13;;
72639;SDS011;60683;51.730;8.762;2023-07-28T09:01:49;8.77;;;4.63;;
72639;SDS011;60683;51.730;8.762;2023-07-28T09:04:16;7.97;;;5.15;;
72639;SDS011;60683;51.730;8.762;2023-07-28T09:06:44;10.32;;;5.80;;
72639;SDS011;60683;51.730;8.762;2023-07-28T09:09:12;7.57;;;4.90;;
72639;SDS011;60683;51.730;8.762;2023-07-28T09:11:45;7.95;;;4.65;;
72639;SDS011;60683;51.730;8.762;2023-07-28T09:14:12;7.25;;;3.90;;
72639;SDS011;60683;51.730;8.762;2023-07-28T09:16:42;6.30;;;3.50;;
72639;SDS011;60683;51.730;8.762;2023-07-28T09:19:09;7.55;;;3.90;;
72639;SDS011;60683;51.730;8.762;2023-07-28T09:21:38;7.93;;;3.83;;
72639;SDS011;60683;51.730;8.762;2023-07-28T09:24:06;10.20;;;5.20;;
72639;SDS011;60683;51.730;8.762;2023-07-28T09:26:38;8.07;;;4.57;;
72639;SDS011;60683;51.730;8.762;2023-07-28T09:29:14;9.90;;;5.35;;
72639;SDS011;60683;51.730;8.762;2023-07-28T09:31:43;8.55;;;5.00;;
72639;SDS011;60683;51.730;8.762;2023-07-28T09:34:12;10.48;;;5.75;;
72639;SDS011;60683;51.730;8.762;2023-07-28T09:36:40;10.52;;;5.80;;
72639;SDS011;60683;51.730;8.762;2023-07-28T09:39:08;9.68;;;5.82;;
72639;SDS011;60683;51.730;8.762;2023-07-28T09:41:35;10.00;;;5.75;;
72639;SDS011;60683;51.730;8.762;2023-07-28T09:44:04;11.82;;;6.88;;
72639;SDS011;60683;51.730;8.762;2023-07-28T09:46:34;10.75;;;6.28;;
72639;SDS011;60683;51.730;8.762;2023-07-28T09:49:03;11.98;;;6.35;;
72639;SDS011;60683;51.730;8.762;2023-07-28T09:51:32;9.98;;;6.63;;
72639;SDS011;60683;51.730;8.762;2023-07-28T09:54:04;11.10;;;6.53;;
72639;SDS011;60683;51.730;8.762;2023-07-28T09:56:32;9.10;;;5.88;;
72639;SDS011;60683;51.730;8.762;2023-07-28T09:59:01;11.07;;;5.45;;
72639;SDS011;60683;51.730;8.762;2023-07-28T10:01:37;8.98;;;6.07;;
72639;SDS011;60683;51.730;8.762;2023-07-28T10:04:06;8.18;;;5.05;;
72639;SDS011;60683;51.730;8.762;2023-07-28T10:06:33;7.65;;;4.57;;
72639;SDS011;60683;51.730;8.762;2023-07-28T10:09:03;9.15;;;4.60;;
72639;SDS011;60683;51.730;8.762;2023-07-28T10:11:32;6.20;;;4.22;;
72639;SDS011;60683;51.730;8.762;2023-07-28T10:13:59;7.88;;;3.92;;
72639;SDS011;60683;51.730;8.762;2023-07-28T10:16:30;5.97;;;3.22;;
72639;SDS011;60683;51.730;8.762;2023-07-28T10:19:00;5.78;;;3.45;;
72639;SDS011;60683;51.730;8.762;2023-07-28T10:21:29;8.20;;;4.18;;
72639;SDS011;60683;51.730;8.762;2023-07-28T10:23:58;6.40;;;3.75;;
72639;SDS011;60683;51.730;8.762;2023-07-28T10:26:30;8.75;;;4.45;;
72639;SDS011;60683;51.730;8.762;2023-07-28T10:29:07;8.82;;;4.85;;
72639;SDS011;60683;51.730;8.762;2023-07-28T10:31:35;9.02;;;5.32;;
72639;SDS011;60683;51.730;8.762;2023-07-28T10:34:04;7.60;;;5.25;;
72639;SDS011;60683;51.730;8.762;2023-07-28T10:36:32;9.60;;;5.00;;
72639;SDS011;60683;51.730;8.762;2023-07-28T10:39:01;8.90;;;5.40;;
72639;SDS011;60683;51.730;8.762;2023-07-28T10:41:46;8.27;;;4.15;;
72639;SDS011;60683;51.730;8.762;2023-07-28T10:44:30;6.55;;;3.90;;
72639;SDS011;60683;51.730;8.762;2023-07-28T10:46:58;6.22;;;3.70;;
72639;SDS011;60683;51.730;8.762;2023-07-28T10:49:27;6.78;;;3.55;;
72639;SDS011;60683;51.730;8.762;2023-07-28T10:51:54;6.10;;;3.63;;
72639;SDS011;60683;51.730;8.762;2023-07-28T10:54:22;4.80;;;3.08;;
72639;SDS011;60683;51.730;8.762;2023-07-28T10:56:49;4.68;;;2.92;;
72639;SDS011;60683;51.730;8.762;2023-07-28T10:59:17;5.28;;;2.78;;
72639;SDS011;60683;51.730;8.762;2023-07-28T11:01:47;6.72;;;3.00;;
72639;SDS011;60683;51.730;8.762;2023-07-28T11:04:20;5.88;;;2.95;;
72639;SDS011;60683;51.730;8.762;2023-07-28T11:06:51;5.18;;;3.28;;
72639;SDS011;60683;51.730;8.762;2023-07-28T11:09:19;5.80;;;3.10;;
72639;SDS011;60683;51.730;8.762;2023-07-28T11:11:49;5.15;;;2.80;;
72639;SDS011;60683;51.730;8.762;2023-07-28T11:14:17;5.70;;;2.80;;
72639;SDS011;60683;51.730;8.762;2023-07-28T11:16:45;5.45;;;3.17;;
72639;SDS011;60683;51.730;8.762;2023-07-28T11:19:14;7.95;;;3.80;;
72639;SDS011;60683;51.730;8.762;2023-07-28T11:21:42;6.47;;;3.63;;
72639;SDS011;60683;51.730;8.762;2023-07-28T11:24:12;7.68;;;3.97;;
72639;SDS011;60683;51.730;8.762;2023-07-28T11:26:45;6.75;;;3.10;;
72639;SDS011;60683;51.730;8.762;2023-07-28T11:29:13;5.60;;;3.38;;
72639;SDS011;60683;51.730;8.762;2023-07-28T11:31:40;6.35;;;3.85;;
72639;SDS011;60683;51.730;8.762;2023-07-28T11:34:12;6.82;;;4.13;;
72639;SDS011;60683;51.730;8.762;2023-07-28T11:36:40;6.18;;;3.55;;
72639;SDS011;60683;51.730;8.762;2023-07-28T11:39:08;5.43;;;3.17;;
72639;SDS011;60683;51.730;8.762;2023-07-28T11:41:38;9.65;;;3.92;;
72639;SDS011;60683;51.730;8.762;2023-07-28T11:44:07;6.40;;;3.53;;
72639;SDS011;60683;51.730;8.762;2023-07-28T11:46:35;7.47;;;4.32;;
72639;SDS011;60683;51.730;8.762;2023-07-28T11:49:08;8.15;;;4.93;;
72639;SDS011;60683;51.730;8.762;2023-07-28T11:51:37;7.75;;;4.25;;
72639;SDS011;60683;51.730;8.762;2023-07-28T11:54:10;7.90;;;4.40;;
72639;SDS011;60683;51.730;8.762;2023-07-28T11:56:41;8.23;;;5.10;;
72639;SDS011;60683;51.730;8.762;2023-07-28T11:59:10;7.93;;;4.40;;
72639;SDS011;60683;51.730;8.762;2023-07-28T12:01:50;10.38;;;6.10;;
72639;SDS011;60683;51.730;8.762;2023-07-28T12:04:19;7.28;;;4.43;;
72639;SDS011;60683;51.730;8.762;2023-07-28T12:07:05;8.23;;;4.85;;
72639;SDS011;60683;51.730;8.762;2023-07-28T12:09:47;9.35;;;5.43;;
72639;SDS011;60683;51.730;8.762;2023-07-28T12:12:20;9.43;;;5.38;;
72639;SDS011;60683;51.730;8.762;2023-07-28T12:14:49;8.95;;;5.38;;
72639;SDS011;60683;51.730;8.762;2023-07-28T12:17:17;9.65;;;5.18;;
72639;SDS011;60683;51.730;8.762;2023-07-28T12:19:57;9.25;;;5.72;;
72639;SDS011;60683;51.730;8.762;2023-07-28T12:22:25;9.38;;;5.90;;
72639;SDS011;60683;51.730;8.762;2023-07-28T12:24:52;10.27;;;4.93;;
72639;SDS011;60683;51.730;8.762;2023-07-28T12:27:21;8.43;;;4.55;;
72639;SDS011;60683;51.730;8.762;2023-07-28T12:29:50;7.80;;;4.90;;
72639;SDS011;60683;51.730;8.762;2023-07-28T12:32:18;8.35;;;5.10;;
72639;SDS011;60683;51.730;8.762;2023-07-28T12:34:46;8.43;;;4.93;;
72639;SDS011;60683;51.730;8.762;2023-07-28T12:37:15;7.38;;;4.68;;
72639;SDS011;60683;51.730;8.762;2023-07-28T12:39:43;7.60;;;4.55;;
72639;SDS011;60683;51.730;8.762;2023-07-28T12:42:11;7.13;;;4.50;;
72639;SDS011;60683;51.730;8.762;2023-07-28T12:44:41;8.02;;;4.65;;
72639;SDS011;60683;51.730;8.762;2023-07-28T12:49:36;8.15;;;4.43;;
72639;SDS011;60683;51.730;8.762;2023-07-28T12:52:04;8.95;;;5.13;;
72639;SDS011;60683;51.730;8.762;2023-07-28T12:54:34;7.72;;;4.15;;
72639;SDS011;60683;51.730;8.762;2023-07-28T12:57:01;7.25;;;4.45;;
72639;SDS011;60683;51.730;8.762;2023-07-28T12:59:29;9.18;;;4.97;;
72639;SDS011;60683;51.730;8.762;2023-07-28T13:01:58;7.28;;;4.82;;
72639;SDS011;60683;51.730;8.762;2023-07-28T13:04:25;6.32;;;3.90;;
72639;SDS011;60683;51.730;8.762;2023-07-28T13:06:53;5.45;;;3.38;;
72639;SDS011;60683;51.730;8.762;2023-07-28T13:09:20;5.93;;;3.15;;
72639;SDS011;60683;51.730;8.762;2023-07-28T13:11:48;5.80;;;3.00;;
72639;SDS011;60683;51.730;8.762;2023-07-28T13:14:15;7.00;;;3.30;;
72639;SDS011;60683;51.730;8.762;2023-07-28T13:16:42;5.75;;;3.45;;
72639;SDS011;60683;51.730;8.762;2023-07-28T13:19:11;6.13;;;3.17;;
72639;SDS011;60683;51.730;8.762;2023-07-28T13:21:39;5.97;;;2.83;;
72639;SDS011;60683;51.730;8.762;2023-07-28T13:24:07;5.40;;;3.17;;
72639;SDS011;60683;51.730;8.762;2023-07-28T13:26:34;5.00;;;2.55;;
72639;SDS011;60683;51.730;8.762;2023-07-28T13:29:02;4.75;;;2.67;;
72639;SDS011;60683;51.730;8.762;2023-07-28T13:31:32;4.05;;;1.90;;
72639;SDS011;60683;51.730;8.762;2023-07-28T13:34:00;3.72;;;2.08;;
72639;SDS011;60683;51.730;8.762;2023-07-28T13:36:30;3.80;;;2.17;;
72639;SDS011;60683;51.730;8.762;2023-07-28T13:38:57;3.80;;;2.03;;
72639;SDS011;60683;51.730;8.762;2023-07-28T13:41:24;3.30;;;1.77;;
72639;SDS011;60683;51.730;8.762;2023-07-28T13:43:52;3.60;;;1.88;;
72639;SDS011;60683;51.730;8.762;2023-07-28T13:46:19;3.85;;;1.63;;
72639;SDS011;60683;51.730;8.762;2023-07-28T13:48:47;4.00;;;1.90;;
72639;SDS011;60683;51.730;8.762;2023-07-28T13:51:14;4.20;;;1.63;;
72639;SDS011;60683;51.730;8.762;2023-07-28T13:53:43;2.80;;;1.38;;
72639;SDS011;60683;51.730;8.762;2023-07-28T13:56:10;3.55;;;1.80;;
72639;SDS011;60683;51.730;8.762;2023-07-28T13:58:38;3.65;;;1.60;;
72639;SDS011;60683;51.730;8.762;2023-07-28T14:01:05;3.63;;;1.73;;
72639;SDS011;60683;51.730;8.762;2023-07-28T14:03:32;3.15;;;1.58;;
72639;SDS011;60683;51.730;8.762;2023-07-28T14:05:59;3.40;;;1.60;;
72639;SDS011;60683;51.730;8.762;2023-07-28T14:08:27;3.63;;;1.50;;
72639;SDS011;60683;51.730;8.762;2023-07-28T14:10:56;3.65;;;1.88;;
72639;SDS011;60683;51.730;8.762;2023-07-28T14:13:23;4.53;;;1.67;;
72639;SDS011;60683;51.730;8.762;2023-07-28T14:15:50;5.85;;;2.03;;
72639;SDS011;60683;51.730;8.762;2023-07-28T14:18:18;4.05;;;1.83;;
72639;SDS011;60683;51.730;8.762;2023-07-28T14:20:45;3.97;;;1.77;;
72639;SDS011;60683;51.730;8.762;2023-07-28T14:23:20;3.42;;;1.65;;
72639;SDS011;60683;51.730;8.762;2023-07-28T14:25:58;3.97;;;1.77;;
72639;SDS011;60683;51.730;8.762;2023-07-28T14:28:26;3.75;;;2.03;;
72639;SDS011;60683;51.730;8.762;2023-07-28T14:30:53;6.30;;;2.63;;
72639;SDS011;60683;51.730;8.762;2023-07-28T14:33:21;3.67;;;1.88;;
72639;SDS011;60683;51.730;8.762;2023-07-28T14:35:49;4.32;;;2.13;;
72639;SDS011;60683;51.730;8.762;2023-07-28T14:38:17;4.85;;;1.77;;
72639;SDS011;60683;51.730;8.762;2023-07-28T14:40:45;5.30;;;2.38;;
72639;SDS011;60683;51.730;8.762;2023-07-28T14:43:16;4.15;;;2.00;;
72639;SDS011;60683;51.730;8.762;2023-07-28T14:45:43;4.95;;;1.65;;
72639;SDS011;60683;51.730;8.762;2023-07-28T14:48:11;3.28;;;1.63;;
72639;SDS011;60683;51.730;8.762;2023-07-28T14:50:38;5.85;;;1.83;;
72639;SDS011;60683;51.730;8.762;2023-07-28T14:56:01;2.72;;;1.23;;
72639;SDS011;60683;51.730;8.762;2023-07-28T14:58:31;3.05;;;1.52;;
72639;SDS011;60683;51.730;8.762;2023-07-28T15:00:59;3.13;;;1.58;;
72639;SDS011;60683;51.730;8.762;2023-07-28T15:03:29;3.40;;;1.48;;